Tillamook, Oregon
Current Conditions -  °F | °C
As of 10:15 PM on Sunday 21 Dec 2014 (Local Time) from KTMK Reporting Station
Haze Haze  
Wind Chill: 54°   Ceiling: 4900
Heat Index: 54°   Visibility: 5mi
Dew Point: 52°   Wind: 8mph
Humidity: 94%   Direction: 230°SW
Pressure: 30.19"   Gusts: NA
Location:  45.46°N, 123.84°W
Report Text: KTMK 220615Z AUTO 23007KT 5SM BR SCT009 BKN049 OVC065 12/11 A3019 RMK AO2
Loading
Personal Weather Stations






























Interactive Weather Map New forecast layout! Learn more

10-Day Weather Forecast

Advertisements
Track Severe Weather on mobile